Time;durP1;ratioP1;P1;durP2;ratioP2;P2;SDS_P1;SDS_P2;PMS_P1;PMS_P2;Temp;Humidity;BMP_temperature;BMP_pressure;BME280_temperature;BME280_humidity;BME280_pressure;Samples;Min_cycle;Max_cycle;Signal;HPM_P1;HPM_P2
2022/05/16 00:02:30;;;;;;;;;;;;;;;;;;5091337;27;20303;-73
2022/05/16 00:10:23;;;;;;;;;;;;;;;;;;5091626;27;19919;-74
2022/05/16 00:14:40;;;;;;;;;;;;;;;;;;5090977;28;19912;-73
2022/05/16 00:17:06;;;;;;;;;;;;;;;;;;5090020;28;20007;-74
2022/05/16 00:19:32;;;;;;;;;;;;;;;;;;5091248;28;19996;-73
2022/05/16 00:21:58;;;;;;;;;;;;;;;;;;5090875;28;19912;-73
2022/05/16 00:27:05;;;;;;;;;;;;;;;;;;5153385;27;20026;-73
2022/05/16 00:29:31;;;;;;;;;;;;;;;;;;5152393;27;19915;-73
2022/05/16 00:31:57;;;;;;;;;;;;;;;;;;5152822;27;20294;-73
2022/05/16 00:34:23;;;;;;;;;;;;;;;;;;5152768;27;19912;-73
2022/05/16 00:37:29;;;;;;;;;;;;;;;;;;5091673;27;20372;-72
2022/05/16 00:39:55;;;;;;;;;;;;;;;;;;5091273;28;20007;-73
2022/05/16 00:42:21;;;;;;;;;;;;;;;;;;5090861;28;19951;-73
2022/05/16 00:47:43;;;;;;;;;;;;;;;;;;5091245;27;19923;-73
2022/05/16 00:52:10;;;;;;;;;;;;;;;;;;5153226;27;19991;-73
2022/05/16 00:54:36;;;;;;;;;;;;;;;;;;5152791;27;19977;-73
2022/05/16 00:59:13;;;;;;;;;;;;;;;;;;5091517;28;19917;-73
2022/05/16 01:07:36;;;;;;;;;;;;;;;;;;5091802;27;19916;-74
2022/05/16 01:10:15;;;;;;;;;;;;;;;;;;5091475;27;20395;-74
2022/05/16 01:14:03;;;;;;;;;;;;;;;;;;5091577;27;19917;-73
2022/05/16 01:18:27;;;;;;;;;;;;;;;;;;5091191;27;20021;-72
2022/05/16 01:20:53;;;;;;;;;;;;;;;;;;5091332;28;19995;-73
2022/05/16 01:25:27;;;;;;;;;;;;;;;;;;5152788;27;20002;-74
2022/05/16 01:27:53;;;;;;;;;;;;;;;;;;5152925;27;19958;-73
2022/05/16 01:30:19;;;;;;;;;;;;;;;;;;5153365;27;20002;-74
2022/05/16 01:36:11;;;;;;;;;;;;;;;;;;5091507;27;19923;-73
2022/05/16 01:40:45;;;;;;;;;;;;;;;;;;5153084;27;19917;-74
2022/05/16 01:43:11;;;;;;;;;;;;;;;;;;5152841;27;19955;-74
2022/05/16 01:47:56;;;;;;;;;;;;;;;;;;5091938;27;20275;-73
2022/05/16 01:53:59;;;;;;;;;;;;;;;;;;5091101;27;20303;-73
2022/05/16 01:56:25;;;;;;;;;;;;;;;;;;5090021;28;20316;-73
2022/05/16 01:58:51;;;;;;;;;;;;;;;;;;5091477;28;19962;-73
2022/05/16 02:03:40;;;;;;;;;;;;;;;;;;5092072;28;20395;-74
2022/05/16 02:06:06;;;;;;;;;;;;;;;;;;5091320;28;19998;-73
2022/05/16 02:08:32;;;;;;;;;;;;;;;;;;5090833;28;20003;-73
2022/05/16 02:10:58;;;;;;;;;;;;;;;;;;5091171;28;19962;-74
2022/05/16 02:14:39;;;;;;;;;;;;;;;;;;5091427;27;19916;-73
2022/05/16 02:17:05;;;;;;;;;;;;;;;;;;5091333;28;20003;-73
2022/05/16 02:19:31;;;;;;;;;;;;;;;;;;5091282;28;19970;-74
2022/05/16 02:27:47;;;;;;;;;;;;;;;;;;5091665;27;19916;-74
2022/05/16 02:30:13;;;;;;;;;;;;;;;;;;5091307;28;20262;-75
2022/05/16 02:33:49;;;;;;;;;;;;;;;;;;5153131;27;20512;-73
2022/05/16 02:36:15;;;;;;;;;;;;;;;;;;5133922;27;19958;-73
2022/05/16 02:38:41;;;;;;;;;;;;;;;;;;5152862;27;19954;-73
2022/05/16 02:41:07;;;;;;;;;;;;;;;;;;5152785;27;19907;-73
2022/05/16 02:46:49;;;;;;;;;;;;;;;;;;5091733;27;20415;-74
2022/05/16 02:53:10;;;;;;;;;;;;;;;;;;5174269;27;20017;-73
2022/05/16 02:56:33;;;;;;;;;;;;;;;;;;5091173;27;19923;-74
2022/05/16 02:58:59;;;;;;;;;;;;;;;;;;5091283;28;20012;-74
2022/05/16 03:01:25;;;;;;;;;;;;;;;;;;5091235;28;20349;-74
2022/05/16 03:03:51;;;;;;;;;;;;;;;;;;5090927;28;19915;-74
2022/05/16 03:06:17;;;;;;;;;;;;;;;;;;5091141;28;19908;-74
2022/05/16 03:10:52;;;;;;;;;;;;;;;;;;5152657;27;20017;-74
2022/05/16 03:13:18;;;;;;;;;;;;;;;;;;5152787;27;19966;-74
2022/05/16 03:15:45;;;;;;;;;;;;;;;;;;5153128;27;20375;-74
2022/05/16 03:18:11;;;;;;;;;;;;;;;;;;5152362;27;19918;-74
2022/05/16 03:20:37;;;;;;;;;;;;;;;;;;5152699;27;19907;-75
2022/05/16 03:23:03;;;;;;;;;;;;;;;;;;5152952;27;20006;-74
2022/05/16 03:25:29;;;;;;;;;;;;;;;;;;5152192;27;19907;-74
2022/05/16 03:27:55;;;;;;;;;;;;;;;;;;5152624;27;19975;-74
2022/05/16 03:30:21;;;;;;;;;;;;;;;;;;5152492;27;19920;-74
2022/05/16 03:32:47;;;;;;;;;;;;;;;;;;5152058;27;20263;-74
2022/05/16 03:35:12;;;;;;;;;;;;;;;;;;5152456;27;19915;-74
2022/05/16 03:37:38;;;;;;;;;;;;;;;;;;5152354;27;19907;-74
2022/05/16 03:42:49;;;;;;;;;;;;;;;;;;5152416;27;19914;-74
2022/05/16 03:45:15;;;;;;;;;;;;;;;;;;5151857;27;19908;-74
2022/05/16 03:47:41;;;;;;;;;;;;;;;;;;5152258;27;20363;-74
2022/05/16 03:50:07;;;;;;;;;;;;;;;;;;5152060;27;19968;-74
2022/05/16 03:52:33;;;;;;;;;;;;;;;;;;5151584;27;19976;-74
2022/05/16 03:54:59;;;;;;;;;;;;;;;;;;5152141;27;19907;-74
2022/05/16 03:57:25;;;;;;;;;;;;;;;;;;5133460;27;19915;-74
2022/05/16 03:59:51;;;;;;;;;;;;;;;;;;5151710;27;19911;-74
2022/05/16 04:02:17;;;;;;;;;;;;;;;;;;5133388;27;19908;-74
2022/05/16 04:04:43;;;;;;;;;;;;;;;;;;5152786;27;19914;-74
2022/05/16 04:07:09;;;;;;;;;;;;;;;;;;5151433;27;19915;-74
2022/05/16 04:09:35;;;;;;;;;;;;;;;;;;5151748;27;19941;-74
2022/05/16 04:12:01;;;;;;;;;;;;;;;;;;5150398;27;20360;-74
2022/05/16 04:15:05;;;;;;;;;;;;;;;;;;5090957;27;19916;-74
2022/05/16 04:17:31;;;;;;;;;;;;;;;;;;5091274;28;19916;-75
2022/05/16 04:21:09;;;;;;;;;;;;;;;;;;5090971;27;19934;-74
2022/05/16 04:23:35;;;;;;;;;;;;;;;;;;5091425;28;20431;-74
2022/05/16 04:27:52;;;;;;;;;;;;;;;;;;5090962;27;19917;-75
2022/05/16 04:32:52;;;;;;;;;;;;;;;;;;5090720;27;19916;-74
2022/05/16 04:35:18;;;;;;;;;;;;;;;;;;5090947;28;20033;-73
2022/05/16 04:37:44;;;;;;;;;;;;;;;;;;5091204;28;20372;-73
2022/05/16 04:43:52;;;;;;;;;;;;;;;;;;5091278;27;19938;-73
2022/05/16 04:47:00;;;;;;;;;;;;;;;;;;5089171;27;19923;-72
2022/05/16 04:51:49;;;;;;;;;;;;;;;;;;5089204;27;19923;-67
2022/05/16 04:55:28;;;;;;;;;;;;;;;;;;5088685;27;19923;-66
2022/05/16 05:01:37;;;;;;;;;;;;;;;;;;5089723;28;20280;-67
2022/05/16 05:05:37;;;;;;;;;;;;;;;;;;5089177;28;19922;-67
2022/05/16 05:08:03;;;;;;;;;;;;;;;;;;5089234;28;19912;-65
2022/05/16 05:16:58;;;;;;;;;;;;;;;;;;5090458;28;19919;-64
2022/05/16 05:19:24;;;;;;;;;;;;;;;;;;5084324;28;19909;-65
2022/05/16 05:21:50;;;;;;;;;;;;;;;;;;5089149;28;19908;-68
2022/05/16 05:24:16;;;;;;;;;;;;;;;;;;5086432;28;19912;-66
2022/05/16 05:27:51;;;;;;;;;;;;;;;;;;5107611;27;20402;-66
2022/05/16 05:31:58;;;;;;;;;;;;;;;;;;5105827;27;19920;-66
2022/05/16 05:34:25;;;;;;;;;;;;;;;;;;5084563;28;19913;-69
2022/05/16 05:44:46;;;;;;;;;;;;;;;;;;5089879;28;19916;-72
2022/05/16 05:47:13;;;;;;;;;;;;;;;;;;5089874;28;19913;-69
2022/05/16 05:51:43;;;;;;;;;;;;;;;;;;5110818;27;20273;-70
2022/05/16 05:54:09;;;;;;;;;;;;;;;;;;5107798;28;19912;-68
2022/05/16 05:57:11;;;;;;;;;;;;;;;;;;5089431;27;19928;-70
2022/05/16 05:59:37;;;;;;;;;;;;;;;;;;5087038;28;19938;-70
2022/05/16 06:03:31;;;;;;;;;;;;;;;;;;5089461;27;20403;-68
2022/05/16 06:05:58;;;;;;;;;;;;;;;;;;5087563;28;20004;-70
2022/05/16 06:10:55;;;;;;;;;;;;;;;;;;5082042;28;19919;-68
2022/05/16 06:13:21;;;;;;;;;;;;;;;;;;5049610;28;19917;-69
2022/05/16 06:16:58;;;;;;;;;;;;;;;;;;5145809;27;19922;-69
2022/05/16 06:23:00;;;;;;;;;;;;;;;;;;5090015;27;20385;-68
2022/05/16 06:25:32;;;;;;;;;;;;;;;;;;5087411;28;19955;-68
2022/05/16 06:33:29;;;;;;;;;;;;;;;;;;5108993;27;19926;-69
2022/05/16 06:35:56;;;;;;;;;;;;;;;;;;5109125;28;19912;-69
2022/05/16 06:41:50;;;;;;;;;;;;;;;;;;5087814;27;19924;-70
2022/05/16 06:45:58;;;;;;;;;;;;;;;;;;5129546;27;20299;-69
2022/05/16 06:50:50;;;;;;;;;;;;;;;;;;5149828;27;20247;-69
2022/05/16 06:53:16;;;;;;;;;;;;;;;;;;5151687;27;19954;-68
2022/05/16 06:59:24;;;;;;;;;;;;;;;;;;5146874;27;20369;-68
2022/05/16 07:02:50;;;;;;;;;;;;;;;;;;5088628;27;20002;-69
2022/05/16 07:07:35;;;;;;;;;;;;;;;;;;5005182;27;3229513;-67
2022/05/16 07:10:01;;;;;;;;;;;;;;;;;;5129123;28;19965;-68
2022/05/16 07:13:36;;;;;;;;;;;;;;;;;;5142818;27;19916;-68
2022/05/16 07:16:03;;;;;;;;;;;;;;;;;;5126699;27;19916;-68
2022/05/16 07:19:23;;;;;;;;;;;;;;;;;;5157175;27;20327;-67
2022/05/16 07:22:50;;;;;;;;;;;;;;;;;;5076224;28;19920;-69
2022/05/16 07:28:29;;;;;;;;;;;;;;;;;;5162076;27;19941;-68
2022/05/16 07:30:55;;;;;;;;;;;;;;;;;;5151807;27;19911;-67
2022/05/16 07:33:21;;;;;;;;;;;;;;;;;;5163185;27;19961;-65
2022/05/16 07:35:52;;;;;;;;;;;;;;;;;;5150974;27;19998;-66
2022/05/16 07:38:18;;;;;;;;;;;;;;;;;;5148942;27;19907;-66
2022/05/16 07:40:44;;;;;;;;;;;;;;;;;;5159295;27;19953;-67
2022/05/16 07:43:11;;;;;;;;;;;;;;;;;;5131312;27;19958;-67
2022/05/16 07:45:37;;;;;;;;;;;;;;;;;;5143207;27;19950;-66
2022/05/16 07:48:03;;;;;;;;;;;;;;;;;;5144484;27;19949;-66
2022/05/16 07:53:14;;;;;;;;;;;;;;;;;;5151868;27;19916;-66
2022/05/16 07:55:41;;;;;;;;;;;;;;;;;;5135799;27;19916;-66
2022/05/16 07:59:02;;;;;;;;;;;;;;;;;;5108407;27;19920;-66
2022/05/16 08:03:24;;;;;;;;;;;;;;;;;;5090152;27;19913;-67
2022/05/16 08:11:39;;;;;;;;;;;;;;;;;;5080416;28;19920;-68
2022/05/16 08:14:06;;;;;;;;;;;;;;;;;;5088058;28;19913;-67
2022/05/16 08:16:32;;;;;;;;;;;;;;;;;;5088865;28;19912;-66
2022/05/16 08:19:01;;;;;;;;;;;;;;;;;;5088932;28;19998;-66
2022/05/16 08:21:28;;;;;;;;;;;;;;;;;;5085688;28;19909;-66
2022/05/16 08:25:02;;;;;;;;;;;;;;;;;;5119299;27;19926;-67
2022/05/16 08:27:28;;;;;;;;;;;;;;;;;;5101409;28;19999;-66
2022/05/16 08:29:55;;;;;;;;;;;;;;;;;;5093283;28;19954;-66
2022/05/16 08:32:23;;;;;;;;;;;;;;;;;;5084004;28;20365;-66
2022/05/16 08:40:10;;;;;;;;;;;;;;;;;;5087427;27;19921;-66
2022/05/16 08:44:15;;;;;;;;;;;;;;;;;;5137990;27;19927;-65
2022/05/16 08:46:41;;;;;;;;;;;;;;;;;;5129485;28;19937;-67
2022/05/16 08:49:11;;;;;;;;;;;;;;;;;;5126290;28;19912;-66
2022/05/16 08:51:37;;;;;;;;;;;;;;;;;;5119945;28;19915;-67
2022/05/16 08:54:06;;;;;;;;;;;;;;;;;;5124822;28;19919;-68
2022/05/16 08:57:26;;;;;;;;;;;;;;;;;;5129304;27;19911;-68
2022/05/16 08:59:52;;;;;;;;;;;;;;;;;;5129634;28;20416;-68
2022/05/16 09:02:18;;;;;;;;;;;;;;;;;;5127781;28;19961;-67
2022/05/16 09:04:44;;;;;;;;;;;;;;;;;;5129215;28;19915;-67
2022/05/16 09:07:14;;;;;;;;;;;;;;;;;;5115019;28;20364;-67
2022/05/16 09:09:40;;;;;;;;;;;;;;;;;;5112284;28;20015;-68
2022/05/16 09:12:06;;;;;;;;;;;;;;;;;;5118390;28;19999;-66
2022/05/16 09:14:32;;;;;;;;;;;;;;;;;;5105347;28;19961;-66
2022/05/16 09:16:58;;;;;;;;;;;;;;;;;;5101297;28;20388;-67
2022/05/16 09:19:24;;;;;;;;;;;;;;;;;;5101071;28;19962;-67
2022/05/16 09:21:50;;;;;;;;;;;;;;;;;;5103318;28;19912;-67
2022/05/16 09:24:49;;;;;;;;;;;;;;;;;;5070163;27;19921;-67
2022/05/16 09:28:34;;;;;;;;;;;;;;;;;;5062488;28;20088;-67
2022/05/16 09:30:01;;;;;;;;;;;;;;;;;;5062198;28;19952;-66
2022/05/16 09:32:27;;;;;;;;;;;;;;;;;;5064126;28;19940;-67
2022/05/16 09:34:54;;;;;;;;;;;;;;;;;;5063267;28;20400;-67
2022/05/16 09:37:20;;;;;;;;;;;;;;;;;;5063259;28;20021;-65
2022/05/16 09:39:46;;;;;;;;;;;;;;;;;;5063818;28;19996;-66
2022/05/16 09:42:12;;;;;;;;;;;;;;;;;;5063952;28;19916;-68
2022/05/16 09:45:35;;;;;;;;;;;;;;;;;;5084570;27;19922;-67
2022/05/16 09:48:01;;;;;;;;;;;;;;;;;;5085657;28;20284;-66
2022/05/16 09:50:30;;;;;;;;;;;;;;;;;;5084985;28;20335;-67
2022/05/16 09:52:56;;;;;;;;;;;;;;;;;;5085639;28;19912;-67
2022/05/16 09:55:23;;;;;;;;;;;;;;;;;;5084081;28;19920;-67
2022/05/16 09:57:49;;;;;;;;;;;;;;;;;;5085272;28;19909;-67
2022/05/16 10:00:16;;;;;;;;;;;;;;;;;;5086312;28;19912;-68
2022/05/16 10:02:42;;;;;;;;;;;;;;;;;;5084630;28;19915;-68
2022/05/16 10:05:08;;;;;;;;;;;;;;;;;;5084854;28;19985;-67
2022/05/16 10:07:34;;;;;;;;;;;;;;;;;;5089209;28;20364;-67
2022/05/16 10:10:00;;;;;;;;;;;;;;;;;;5089788;28;19958;-67
2022/05/16 10:12:26;;;;;;;;;;;;;;;;;;5086494;28;20595;-67
2022/05/16 10:16:07;;;;;;;;;;;;;;;;;;5086317;27;20292;-66
2022/05/16 10:18:33;;;;;;;;;;;;;;;;;;5090150;28;19913;-68
2022/05/16 10:20:59;;;;;;;;;;;;;;;;;;5089814;28;19908;-68
2022/05/16 10:23:25;;;;;;;;;;;;;;;;;;5090565;28;19920;-68
2022/05/16 10:25:52;;;;;;;;;;;;;;;;;;5088927;28;19908;-68
2022/05/16 10:28:18;;;;;;;;;;;;;;;;;;5090480;28;19931;-69
2022/05/16 10:33:29;;;;;;;;;;;;;;;;;;5081878;28;20272;-68
2022/05/16 10:35:55;;;;;;;;;;;;;;;;;;5072251;28;19924;-68
2022/05/16 10:38:21;;;;;;;;;;;;;;;;;;5089451;28;19932;-67
2022/05/16 10:40:47;;;;;;;;;;;;;;;;;;5083013;28;19943;-67
2022/05/16 10:43:13;;;;;;;;;;;;;;;;;;5090102;28;19919;-68
2022/05/16 10:45:39;;;;;;;;;;;;;;;;;;5089176;28;19912;-67
2022/05/16 10:48:05;;;;;;;;;;;;;;;;;;5088809;28;19912;-68
2022/05/16 10:50:31;;;;;;;;;;;;;;;;;;5089841;28;19958;-69
2022/05/16 10:52:57;;;;;;;;;;;;;;;;;;5087631;28;20323;-68
2022/05/16 10:55:23;;;;;;;;;;;;;;;;;;5089094;28;19923;-67
2022/05/16 10:57:49;;;;;;;;;;;;;;;;;;5089543;28;19955;-67
2022/05/16 11:00:15;;;;;;;;;;;;;;;;;;5087630;28;19913;-72
2022/05/16 11:02:41;;;;;;;;;;;;;;;;;;5087440;28;19912;-73
2022/05/16 11:05:08;;;;;;;;;;;;;;;;;;5087807;28;20459;-67
2022/05/16 11:07:34;;;;;;;;;;;;;;;;;;5082481;28;19909;-69
2022/05/16 11:10:00;;;;;;;;;;;;;;;;;;5073616;28;19920;-67
2022/05/16 11:12:26;;;;;;;;;;;;;;;;;;5067080;28;19908;-67
2022/05/16 11:14:52;;;;;;;;;;;;;;;;;;5076452;28;20392;-68
2022/05/16 11:17:18;;;;;;;;;;;;;;;;;;5086757;28;19908;-67
2022/05/16 11:19:44;;;;;;;;;;;;;;;;;;5099502;28;19916;-67
2022/05/16 11:22:11;;;;;;;;;;;;;;;;;;5089595;28;19945;-69
2022/05/16 11:24:37;;;;;;;;;;;;;;;;;;5088969;28;19908;-69
2022/05/16 11:27:03;;;;;;;;;;;;;;;;;;5059533;28;19998;-69
2022/05/16 11:29:29;;;;;;;;;;;;;;;;;;5057211;28;19908;-69
2022/05/16 11:31:56;;;;;;;;;;;;;;;;;;5057401;28;20445;-68
2022/05/16 11:34:22;;;;;;;;;;;;;;;;;;5075779;28;19912;-68
2022/05/16 11:36:49;;;;;;;;;;;;;;;;;;5077492;28;20326;-68
2022/05/16 11:39:14;;;;;;;;;;;;;;;;;;5095070;28;19919;-69
2022/05/16 11:41:40;;;;;;;;;;;;;;;;;;5093617;28;19916;-69
2022/05/16 11:44:06;;;;;;;;;;;;;;;;;;5093610;28;19915;-69
2022/05/16 11:46:32;;;;;;;;;;;;;;;;;;5094104;28;19909;-67
2022/05/16 11:48:58;;;;;;;;;;;;;;;;;;5094475;28;19915;-67
2022/05/16 11:51:25;;;;;;;;;;;;;;;;;;5093806;28;19916;-67
2022/05/16 11:53:51;;;;;;;;;;;;;;;;;;5094357;28;19922;-67
2022/05/16 12:01:49;;;;;;;;;;;;;;;;;;5082873;28;19958;-68
2022/05/16 12:04:15;;;;;;;;;;;;;;;;;;5101687;28;19912;-68
2022/05/16 12:06:41;;;;;;;;;;;;;;;;;;5076146;28;20253;-67
2022/05/16 12:09:08;;;;;;;;;;;;;;;;;;5066196;28;19914;-67
2022/05/16 12:11:34;;;;;;;;;;;;;;;;;;5079043;28;20003;-66
2022/05/16 12:14:01;;;;;;;;;;;;;;;;;;5074561;28;20027;-67
2022/05/16 12:16:28;;;;;;;;;;;;;;;;;;5073259;28;20449;-67
2022/05/16 12:18:54;;;;;;;;;;;;;;;;;;5054494;28;19942;-68
2022/05/16 12:21:20;;;;;;;;;;;;;;;;;;5055774;28;20357;-69
2022/05/16 12:23:49;;;;;;;;;;;;;;;;;;5074603;28;19995;-69
2022/05/16 12:26:15;;;;;;;;;;;;;;;;;;5074441;28;20413;-67
2022/05/16 12:28:41;;;;;;;;;;;;;;;;;;5056325;28;19908;-67
2022/05/16 12:31:07;;;;;;;;;;;;;;;;;;5074951;28;19991;-67
2022/05/16 12:33:33;;;;;;;;;;;;;;;;;;5074077;28;20000;-67
2022/05/16 12:35:59;;;;;;;;;;;;;;;;;;5074611;28;19920;-66
2022/05/16 12:38:25;;;;;;;;;;;;;;;;;;5054305;28;19919;-67
2022/05/16 12:40:51;;;;;;;;;;;;;;;;;;5072923;28;19908;-69
2022/05/16 12:43:17;;;;;;;;;;;;;;;;;;5072781;28;20288;-69
2022/05/16 12:45:43;;;;;;;;;;;;;;;;;;5072696;28;19915;-71
2022/05/16 12:48:10;;;;;;;;;;;;;;;;;;5072290;28;20392;-71
2022/05/16 12:50:36;;;;;;;;;;;;;;;;;;5078200;28;19908;-72
2022/05/16 12:53:02;;;;;;;;;;;;;;;;;;5091451;28;20228;-71
2022/05/16 12:55:28;;;;;;;;;;;;;;;;;;5092246;28;19920;-71
2022/05/16 12:57:54;;;;;;;;;;;;;;;;;;5093531;28;19908;-71
2022/05/16 13:00:20;;;;;;;;;;;;;;;;;;5093466;28;19908;-71
2022/05/16 13:02:47;;;;;;;;;;;;;;;;;;5093053;28;19908;-72
2022/05/16 13:05:12;;;;;;;;;;;;;;;;;;5094635;28;20011;-71
2022/05/16 13:07:39;;;;;;;;;;;;;;;;;;5094374;28;20002;-71
2022/05/16 13:10:05;;;;;;;;;;;;;;;;;;5094839;28;19919;-71
2022/05/16 13:12:31;;;;;;;;;;;;;;;;;;5094658;28;20415;-71
2022/05/16 13:14:58;;;;;;;;;;;;;;;;;;5094012;28;19927;-70
2022/05/16 13:17:24;;;;;;;;;;;;;;;;;;5094753;28;20025;-70
2022/05/16 13:19:49;;;;;;;;;;;;;;;;;;5094599;28;19908;-70
2022/05/16 13:22:15;;;;;;;;;;;;;;;;;;5094109;28;20280;-72
2022/05/16 13:24:41;;;;;;;;;;;;;;;;;;5094650;28;19943;-71
2022/05/16 13:29:52;;;;;;;;;;;;;;;;;;5075457;28;20315;-71
2022/05/16 13:32:18;;;;;;;;;;;;;;;;;;5073985;28;19908;-71
2022/05/16 13:34:44;;;;;;;;;;;;;;;;;;5073895;28;19951;-70
2022/05/16 13:37:10;;;;;;;;;;;;;;;;;;5055632;28;19959;-70
2022/05/16 13:39:36;;;;;;;;;;;;;;;;;;5073955;28;19908;-70
2022/05/16 13:42:02;;;;;;;;;;;;;;;;;;5053272;28;19916;-71
2022/05/16 13:44:29;;;;;;;;;;;;;;;;;;5055636;28;19916;-71
2022/05/16 13:46:55;;;;;;;;;;;;;;;;;;5073891;28;19912;-72
2022/05/16 13:49:21;;;;;;;;;;;;;;;;;;5073598;28;19916;-71
2022/05/16 13:51:48;;;;;;;;;;;;;;;;;;5092889;28;20276;-71
2022/05/16 13:54:15;;;;;;;;;;;;;;;;;;5094331;28;20345;-71
2022/05/16 13:56:41;;;;;;;;;;;;;;;;;;5075470;28;20334;-71
2022/05/16 13:59:07;;;;;;;;;;;;;;;;;;5093949;28;19915;-71
2022/05/16 14:01:33;;;;;;;;;;;;;;;;;;5093845;28;19993;-71
2022/05/16 14:03:59;;;;;;;;;;;;;;;;;;5092326;28;20380;-72
2022/05/16 14:06:25;;;;;;;;;;;;;;;;;;5084685;28;19929;-71
2022/05/16 14:08:51;;;;;;;;;;;;;;;;;;5073747;28;19995;-73
2022/05/16 14:11:17;;;;;;;;;;;;;;;;;;5073341;28;19912;-72
2022/05/16 14:13:44;;;;;;;;;;;;;;;;;;5072179;28;19916;-72
2022/05/16 14:16:10;;;;;;;;;;;;;;;;;;5073285;28;20365;-72
2022/05/16 14:18:36;;;;;;;;;;;;;;;;;;5055165;28;19996;-71
2022/05/16 14:21:02;;;;;;;;;;;;;;;;;;5073552;28;19908;-70
2022/05/16 14:23:28;;;;;;;;;;;;;;;;;;5073504;28;19904;-70
2022/05/16 14:25:54;;;;;;;;;;;;;;;;;;5073033;28;20003;-71
2022/05/16 14:28:20;;;;;;;;;;;;;;;;;;5073363;28;19927;-72
2022/05/16 14:30:46;;;;;;;;;;;;;;;;;;5070890;28;19915;-72
2022/05/16 14:33:14;;;;;;;;;;;;;;;;;;5073008;28;20424;-72
2022/05/16 14:35:40;;;;;;;;;;;;;;;;;;5073554;28;19916;-71
2022/05/16 14:38:06;;;;;;;;;;;;;;;;;;5073351;28;19916;-70
2022/05/16 14:40:32;;;;;;;;;;;;;;;;;;5073032;28;20422;-70
2022/05/16 14:42:58;;;;;;;;;;;;;;;;;;5073287;28;19991;-72
2022/05/16 14:46:42;;;;;;;;;;;;;;;;;;5086170;28;19908;-72
2022/05/16 14:48:11;;;;;;;;;;;;;;;;;;5092870;28;20348;-71
2022/05/16 14:50:37;;;;;;;;;;;;;;;;;;5093157;28;19915;-71
2022/05/16 14:53:05;;;;;;;;;;;;;;;;;;5093085;28;19995;-71
2022/05/16 14:55:31;;;;;;;;;;;;;;;;;;5093485;28;19917;-71
2022/05/16 14:57:58;;;;;;;;;;;;;;;;;;5093407;28;19908;-71
2022/05/16 15:05:53;;;;;;;;;;;;;;;;;;5077039;28;20353;-71
2022/05/16 15:08:19;;;;;;;;;;;;;;;;;;5078776;28;19909;-71
2022/05/16 15:10:45;;;;;;;;;;;;;;;;;;5079265;28;19917;-71
2022/05/16 15:13:11;;;;;;;;;;;;;;;;;;5085556;28;19999;-71
2022/05/16 15:15:37;;;;;;;;;;;;;;;;;;5087336;28;20466;-72
2022/05/16 15:18:03;;;;;;;;;;;;;;;;;;5076888;28;19908;-72
2022/05/16 15:20:30;;;;;;;;;;;;;;;;;;5076563;28;20276;-72
2022/05/16 15:22:56;;;;;;;;;;;;;;;;;;5076181;28;19947;-72
2022/05/16 15:25:23;;;;;;;;;;;;;;;;;;5058429;28;20277;-71
2022/05/16 15:27:49;;;;;;;;;;;;;;;;;;5076451;28;20015;-70
2022/05/16 15:30:15;;;;;;;;;;;;;;;;;;5076072;28;19955;-73
2022/05/16 15:32:41;;;;;;;;;;;;;;;;;;5076446;28;19915;-72
2022/05/16 15:35:07;;;;;;;;;;;;;;;;;;5076373;28;19917;-72
2022/05/16 15:37:33;;;;;;;;;;;;;;;;;;5075975;28;19965;-72
2022/05/16 15:39:59;;;;;;;;;;;;;;;;;;5075234;28;19916;-72
2022/05/16 15:42:26;;;;;;;;;;;;;;;;;;5075033;28;20340;-71
2022/05/16 15:44:53;;;;;;;;;;;;;;;;;;5075471;28;19919;-72
2022/05/16 15:47:19;;;;;;;;;;;;;;;;;;5074441;28;19909;-72
2022/05/16 15:49:46;;;;;;;;;;;;;;;;;;5073649;28;19957;-72
2022/05/16 15:52:12;;;;;;;;;;;;;;;;;;5056022;28;19943;-72
2022/05/16 15:54:38;;;;;;;;;;;;;;;;;;5073843;28;19913;-72
2022/05/16 15:57:04;;;;;;;;;;;;;;;;;;5073533;28;19909;-72
2022/05/16 15:59:30;;;;;;;;;;;;;;;;;;5073812;28;20277;-72
2022/05/16 16:01:56;;;;;;;;;;;;;;;;;;5075028;28;20005;-72
2022/05/16 16:09:52;;;;;;;;;;;;;;;;;;5075744;28;19919;-72
2022/05/16 16:12:19;;;;;;;;;;;;;;;;;;5057080;28;19953;-72
2022/05/16 16:14:45;;;;;;;;;;;;;;;;;;5075326;28;19932;-72
2022/05/16 16:17:12;;;;;;;;;;;;;;;;;;5075611;28;19909;-71
2022/05/16 16:19:38;;;;;;;;;;;;;;;;;;5075104;28;19913;-72
2022/05/16 16:22:04;;;;;;;;;;;;;;;;;;5075456;28;19915;-72
2022/05/16 16:24:30;;;;;;;;;;;;;;;;;;5075482;28;19948;-73
2022/05/16 16:26:56;;;;;;;;;;;;;;;;;;5075393;28;19908;-72
2022/05/16 16:29:23;;;;;;;;;;;;;;;;;;5075409;28;19991;-72
2022/05/16 16:31:49;;;;;;;;;;;;;;;;;;5074894;28;20357;-72
2022/05/16 16:34:17;;;;;;;;;;;;;;;;;;5057259;28;19917;-71
2022/05/16 16:36:43;;;;;;;;;;;;;;;;;;5075109;28;19912;-71
2022/05/16 16:39:09;;;;;;;;;;;;;;;;;;5075131;28;19916;-72
2022/05/16 16:41:35;;;;;;;;;;;;;;;;;;5075701;28;19913;-72
2022/05/16 16:44:01;;;;;;;;;;;;;;;;;;5075053;28;19962;-72
2022/05/16 16:46:28;;;;;;;;;;;;;;;;;;5074894;28;19913;-72
2022/05/16 16:48:54;;;;;;;;;;;;;;;;;;5075322;28;19908;-72
2022/05/16 16:59:34;;;;;;;;;;;;;;;;;;5074466;28;19999;-72
2022/05/16 17:02:01;;;;;;;;;;;;;;;;;;5074818;28;19948;-72
2022/05/16 17:04:27;;;;;;;;;;;;;;;;;;5074773;28;19923;-72
2022/05/16 17:06:53;;;;;;;;;;;;;;;;;;5074134;28;19913;-72
2022/05/16 17:09:19;;;;;;;;;;;;;;;;;;5074477;28;19916;-73
2022/05/16 17:13:04;;;;;;;;;;;;;;;;;;5091652;27;19912;-73
2022/05/16 17:15:30;;;;;;;;;;;;;;;;;;5090997;28;19965;-73
2022/05/16 17:17:55;;;;;;;;;;;;;;;;;;5091256;28;19908;-73
2022/05/16 17:20:21;;;;;;;;;;;;;;;;;;5091101;28;19955;-73
2022/05/16 17:22:47;;;;;;;;;;;;;;;;;;5090744;28;19965;-73
2022/05/16 17:25:14;;;;;;;;;;;;;;;;;;5091103;28;19909;-74
2022/05/16 17:27:54;;;;;;;;;;;;;;;;;;5091485;27;19917;-72
2022/05/16 17:30:20;;;;;;;;;;;;;;;;;;5091163;28;20288;-73
2022/05/16 17:32:47;;;;;;;;;;;;;;;;;;5089908;28;19914;-72
2022/05/16 17:35:13;;;;;;;;;;;;;;;;;;5090771;28;19913;-73
2022/05/16 17:38:54;;;;;;;;;;;;;;;;;;5091359;27;19913;-72
2022/05/16 17:41:20;;;;;;;;;;;;;;;;;;5091202;28;19913;-72
2022/05/16 17:43:46;;;;;;;;;;;;;;;;;;5090735;28;19909;-72
2022/05/16 17:46:37;;;;;;;;;;;;;;;;;;5091400;27;19917;-73
2022/05/16 17:49:27;;;;;;;;;;;;;;;;;;5091308;27;19916;-75
2022/05/16 17:51:53;;;;;;;;;;;;;;;;;;5091274;28;19912;-74
2022/05/16 17:54:19;;;;;;;;;;;;;;;;;;5091241;28;19909;-73
2022/05/16 17:56:45;;;;;;;;;;;;;;;;;;5090775;28;20319;-72
2022/05/16 17:59:11;;;;;;;;;;;;;;;;;;5091148;28;19934;-73
2022/05/16 18:01:37;;;;;;;;;;;;;;;;;;5091111;28;19919;-72
2022/05/16 18:04:03;;;;;;;;;;;;;;;;;;5089343;28;19999;-72
2022/05/16 18:06:29;;;;;;;;;;;;;;;;;;5090876;28;19973;-73
2022/05/16 18:08:55;;;;;;;;;;;;;;;;;;5091440;28;20033;-72
2022/05/16 18:14:06;;;;;;;;;;;;;;;;;;5090809;28;20417;-73
2022/05/16 18:16:32;;;;;;;;;;;;;;;;;;5090679;28;19939;-73
2022/05/16 18:18:58;;;;;;;;;;;;;;;;;;5090398;28;19908;-73
2022/05/16 18:21:25;;;;;;;;;;;;;;;;;;5090863;28;19908;-73
2022/05/16 18:23:51;;;;;;;;;;;;;;;;;;5090799;28;19946;-74
2022/05/16 18:26:17;;;;;;;;;;;;;;;;;;5090250;28;19952;-73
2022/05/16 18:28:43;;;;;;;;;;;;;;;;;;5090586;28;19918;-73
2022/05/16 18:31:09;;;;;;;;;;;;;;;;;;5090066;28;19912;-73
2022/05/16 18:37:54;;;;;;;;;;;;;;;;;;5091440;27;20373;-71
2022/05/16 18:40:20;;;;;;;;;;;;;;;;;;5090804;28;19966;-71
2022/05/16 18:51:00;;;;;;;;;;;;;;;;;;5091410;28;20411;-72
2022/05/16 18:56:29;;;;;;;;;;;;;;;;;;5091987;27;19916;-72
2022/05/16 19:00:56;;;;;;;;;;;;;;;;;;5090920;27;19916;-71
2022/05/16 19:03:22;;;;;;;;;;;;;;;;;;5090935;28;19913;-71
2022/05/16 19:09:08;;;;;;;;;;;;;;;;;;5091253;27;20403;-72
2022/05/16 19:11:34;;;;;;;;;;;;;;;;;;5091216;28;19995;-71
2022/05/16 19:15:59;;;;;;;;;;;;;;;;;;5091206;28;19913;-70
2022/05/16 19:18:25;;;;;;;;;;;;;;;;;;5091120;28;19995;-71
2022/05/16 19:20:52;;;;;;;;;;;;;;;;;;5090834;28;20022;-71
2022/05/16 19:23:18;;;;;;;;;;;;;;;;;;5091194;28;19943;-71
2022/05/16 19:33:45;;;;;;;;;;;;;;;;;;5089595;28;19920;-72
2022/05/16 19:37:55;;;;;;;;;;;;;;;;;;5089891;27;19923;-71
2022/05/16 19:41:31;;;;;;;;;;;;;;;;;;5088762;28;19916;-71
2022/05/16 19:43:57;;;;;;;;;;;;;;;;;;5087896;28;19912;-72
2022/05/16 19:48:02;;;;;;;;;;;;;;;;;;5089268;28;20292;-71
2022/05/16 19:50:28;;;;;;;;;;;;;;;;;;5088879;28;20433;-71
2022/05/16 19:52:54;;;;;;;;;;;;;;;;;;5089125;28;19999;-71
2022/05/16 19:57:45;;;;;;;;;;;;;;;;;;5088852;28;19916;-71
2022/05/16 20:00:11;;;;;;;;;;;;;;;;;;5089238;28;19943;-73
2022/05/16 20:02:37;;;;;;;;;;;;;;;;;;5088869;28;19988;-73
2022/05/16 20:05:03;;;;;;;;;;;;;;;;;;5089212;28;19908;-73
2022/05/16 20:07:29;;;;;;;;;;;;;;;;;;5089802;28;19909;-73
2022/05/16 20:12:17;;;;;;;;;;;;;;;;;;5112488;27;19922;-72
2022/05/16 20:15:48;;;;;;;;;;;;;;;;;;5092030;27;19917;-72
2022/05/16 20:18:16;;;;;;;;;;;;;;;;;;5090864;28;20329;-71
2022/05/16 20:20:42;;;;;;;;;;;;;;;;;;5091294;28;19909;-72
2022/05/16 20:27:38;;;;;;;;;;;;;;;;;;5112085;27;20018;-71
2022/05/16 20:30:04;;;;;;;;;;;;;;;;;;5111538;28;19916;-71
2022/05/16 20:34:08;;;;;;;;;;;;;;;;;;5091975;27;19916;-72
2022/05/16 20:39:55;;;;;;;;;;;;;;;;;;5091325;27;19934;-71
2022/05/16 20:42:21;;;;;;;;;;;;;;;;;;5091331;28;20436;-71
2022/05/16 20:46:44;;;;;;;;;;;;;;;;;;5090951;27;20377;-71
2022/05/16 20:49:10;;;;;;;;;;;;;;;;;;5091767;28;19995;-71
2022/05/16 20:51:36;;;;;;;;;;;;;;;;;;5091306;28;19996;-71